sensor_id;sensor_type;location;lat;lon;timestamp;pressure;altitude;pressure_sealevel;temperature;humidity
19447;BME280;9862;49.462;11.054;2023-11-19T00:00:53;97996.16;;;8.79;100.00
19447;BME280;9862;49.462;11.054;2023-11-19T00:03:20;97988.59;;;8.76;100.00
19447;BME280;9862;49.462;11.054;2023-11-19T00:05:46;97983.72;;;8.79;100.00
19447;BME280;9862;49.462;11.054;2023-11-19T00:08:15;97976.56;;;8.80;100.00
19447;BME280;9862;49.462;11.054;2023-11-19T00:10:42;97965.75;;;8.81;100.00
19447;BME280;9862;49.462;11.054;2023-11-19T00:13:09;97958.81;;;8.87;100.00
19447;BME280;9862;49.462;11.054;2023-11-19T00:15:37;97960.91;;;8.98;100.00
19447;BME280;9862;49.462;11.054;2023-11-19T00:18:05;97962.31;;;8.94;100.00
19447;BME280;9862;49.462;11.054;2023-11-19T00:20:31;97970.06;;;8.89;100.00
19447;BME280;9862;49.462;11.054;2023-11-19T00:22:59;97970.69;;;8.91;100.00
19447;BME280;9862;49.462;11.054;2023-11-19T00:25:29;97972.94;;;8.94;100.00
19447;BME280;9862;49.462;11.054;2023-11-19T00:27:57;97973.13;;;8.93;100.00
19447;BME280;9862;49.462;11.054;2023-11-19T00:30:26;97963.13;;;8.88;100.00
19447;BME280;9862;49.462;11.054;2023-11-19T00:32:53;97962.28;;;8.87;100.00
19447;BME280;9862;49.462;11.054;2023-11-19T00:35:20;97959.47;;;8.89;100.00
19447;BME280;9862;49.462;11.054;2023-11-19T00:37:47;97946.81;;;8.91;100.00
19447;BME280;9862;49.462;11.054;2023-11-19T00:40:15;97939.03;;;8.96;100.00
19447;BME280;9862;49.462;11.054;2023-11-19T00:42:44;97935.81;;;9.01;100.00
19447;BME280;9862;49.462;11.054;2023-11-19T00:45:11;97935.78;;;8.94;100.00
19447;BME280;9862;49.462;11.054;2023-11-19T00:47:38;97924.75;;;8.97;100.00
19447;BME280;9862;49.462;11.054;2023-11-19T00:50:06;97917.81;;;8.96;100.00
19447;BME280;9862;49.462;11.054;2023-11-19T00:52:34;97915.34;;;8.95;100.00
19447;BME280;9862;49.462;11.054;2023-11-19T00:55:02;97922.09;;;8.97;100.00
19447;BME280;9862;49.462;11.054;2023-11-19T00:57:29;97917.63;;;8.98;100.00
19447;BME280;9862;49.462;11.054;2023-11-19T01:00:00;97910.06;;;8.95;100.00
19447;BME280;9862;49.462;11.054;2023-11-19T01:02:28;97907.84;;;8.98;100.00
19447;BME280;9862;49.462;11.054;2023-11-19T01:04:55;97886.00;;;9.09;100.00
19447;BME280;9862;49.462;11.054;2023-11-19T01:07:22;97894.56;;;8.98;100.00
19447;BME280;9862;49.462;11.054;2023-11-19T01:09:50;97902.28;;;8.93;100.00
19447;BME280;9862;49.462;11.054;2023-11-19T01:12:18;97911.72;;;9.02;100.00
19447;BME280;9862;49.462;11.054;2023-11-19T01:14:45;97912.94;;;9.00;100.00
19447;BME280;9862;49.462;11.054;2023-11-19T01:17:13;97915.78;;;8.98;100.00
19447;BME280;9862;49.462;11.054;2023-11-19T01:19:40;97919.06;;;9.00;100.00
19447;BME280;9862;49.462;11.054;2023-11-19T01:22:06;97921.91;;;8.99;100.00
19447;BME280;9862;49.462;11.054;2023-11-19T01:24:33;97904.38;;;9.11;100.00
19447;BME280;9862;49.462;11.054;2023-11-19T01:27:01;97907.63;;;9.13;100.00
19447;BME280;9862;49.462;11.054;2023-11-19T01:29:28;97911.28;;;9.05;100.00
19447;BME280;9862;49.462;11.054;2023-11-19T01:31:54;97905.19;;;9.11;100.00
19447;BME280;9862;49.462;11.054;2023-11-19T01:34:22;97893.16;;;9.09;100.00
19447;BME280;9862;49.462;11.054;2023-11-19T01:36:49;97902.94;;;9.08;100.00
19447;BME280;9862;49.462;11.054;2023-11-19T01:39:16;97894.97;;;9.08;100.00
19447;BME280;9862;49.462;11.054;2023-11-19T01:41:43;97885.78;;;9.11;100.00
19447;BME280;9862;49.462;11.054;2023-11-19T01:44:10;97883.16;;;9.17;100.00
19447;BME280;9862;49.462;11.054;2023-11-19T01:46:40;97876.59;;;9.13;100.00
19447;BME280;9862;49.462;11.054;2023-11-19T01:49:09;97872.53;;;9.17;100.00
19447;BME280;9862;49.462;11.054;2023-11-19T01:51:38;97863.94;;;9.15;100.00
19447;BME280;9862;49.462;11.054;2023-11-19T01:54:07;97851.06;;;9.12;100.00
19447;BME280;9862;49.462;11.054;2023-11-19T01:56:35;97847.19;;;9.08;100.00
19447;BME280;9862;49.462;11.054;2023-11-19T01:59:03;97820.25;;;9.11;100.00
19447;BME280;9862;49.462;11.054;2023-11-19T02:01:30;97812.88;;;9.13;100.00
19447;BME280;9862;49.462;11.054;2023-11-19T02:03:58;97819.63;;;9.09;100.00
19447;BME280;9862;49.462;11.054;2023-11-19T02:06:26;97823.09;;;9.16;100.00
19447;BME280;9862;49.462;11.054;2023-11-19T02:08:55;97821.84;;;9.26;100.00
19447;BME280;9862;49.462;11.054;2023-11-19T02:11:23;97822.69;;;9.20;100.00
19447;BME280;9862;49.462;11.054;2023-11-19T02:13:54;97820.03;;;9.20;100.00
19447;BME280;9862;49.462;11.054;2023-11-19T02:16:21;97823.31;;;9.22;100.00
19447;BME280;9862;49.462;11.054;2023-11-19T02:18:48;97819.63;;;9.23;100.00
19447;BME280;9862;49.462;11.054;2023-11-19T02:21:16;97832.09;;;9.29;100.00
19447;BME280;9862;49.462;11.054;2023-11-19T02:23:43;97829.44;;;9.29;100.00
19447;BME280;9862;49.462;11.054;2023-11-19T02:26:16;97822.06;;;9.24;100.00
19447;BME280;9862;49.462;11.054;2023-11-19T02:28:46;97826.16;;;9.27;100.00
19447;BME280;9862;49.462;11.054;2023-11-19T02:31:14;97821.84;;;9.26;100.00
19447;BME280;9862;49.462;11.054;2023-11-19T02:33:41;97819.84;;;9.28;100.00
19447;BME280;9862;49.462;11.054;2023-11-19T02:36:09;97809.19;;;9.34;100.00
19447;BME280;9862;49.462;11.054;2023-11-19T02:38:37;97803.06;;;9.34;100.00
19447;BME280;9862;49.462;11.054;2023-11-19T02:41:05;97808.38;;;9.34;100.00
19447;BME280;9862;49.462;11.054;2023-11-19T02:43:32;97807.97;;;9.37;100.00
19447;BME280;9862;49.462;11.054;2023-11-19T02:46:01;97814.91;;;9.38;100.00
19447;BME280;9862;49.462;11.054;2023-11-19T02:48:31;97809.19;;;9.41;100.00
19447;BME280;9862;49.462;11.054;2023-11-19T02:50:57;97799.38;;;9.41;100.00
19447;BME280;9862;49.462;11.054;2023-11-19T02:53:24;97804.28;;;9.44;100.00
19447;BME280;9862;49.462;11.054;2023-11-19T02:55:53;97790.38;;;9.49;100.00
19447;BME280;9862;49.462;11.054;2023-11-19T02:58:27;97798.94;;;9.51;100.00
19447;BME280;9862;49.462;11.054;2023-11-19T03:00:54;97797.53;;;9.49;100.00
19447;BME280;9862;49.462;11.054;2023-11-19T03:03:25;97784.22;;;9.55;100.00
19447;BME280;9862;49.462;11.054;2023-11-19T03:05:56;97785.88;;;9.56;100.00
19447;BME280;9862;49.462;11.054;2023-11-19T03:08:23;97794.41;;;9.65;100.00
19447;BME280;9862;49.462;11.054;2023-11-19T03:10:50;97796.25;;;9.64;100.00
19447;BME280;9862;49.462;11.054;2023-11-19T03:13:17;97792.78;;;9.64;100.00
19447;BME280;9862;49.462;11.054;2023-11-19T03:15:44;97785.03;;;9.62;100.00
19447;BME280;9862;49.462;11.054;2023-11-19T03:18:12;97777.28;;;9.61;100.00
19447;BME280;9862;49.462;11.054;2023-11-19T03:20:41;97772.34;;;9.64;100.00
19447;BME280;9862;49.462;11.054;2023-11-19T03:23:08;97769.09;;;9.62;100.00
19447;BME280;9862;49.462;11.054;2023-11-19T03:25:36;97759.50;;;9.61;100.00
19447;BME280;9862;49.462;11.054;2023-11-19T03:28:05;97759.69;;;9.66;100.00
19447;BME280;9862;49.462;11.054;2023-11-19T03:30:34;97757.81;;;9.73;100.00
19447;BME280;9862;49.462;11.054;2023-11-19T03:33:02;97770.91;;;9.68;100.00
19447;BME280;9862;49.462;11.054;2023-11-19T03:35:31;97762.16;;;9.61;100.00
19447;BME280;9862;49.462;11.054;2023-11-19T03:38:02;97736.81;;;9.65;100.00
19447;BME280;9862;49.462;11.054;2023-11-19T03:40:31;97722.91;;;9.63;100.00
19447;BME280;9862;49.462;11.054;2023-11-19T03:42:59;97704.94;;;9.65;100.00
19447;BME280;9862;49.462;11.054;2023-11-19T03:45:26;97696.53;;;9.68;100.00
19447;BME280;9862;49.462;11.054;2023-11-19T03:47:53;97677.94;;;9.62;100.00
19447;BME280;9862;49.462;11.054;2023-11-19T03:50:20;97650.59;;;9.55;100.00
19447;BME280;9862;49.462;11.054;2023-11-19T03:52:46;97627.53;;;9.49;100.00
19447;BME280;9862;49.462;11.054;2023-11-19T03:55:14;97627.13;;;9.45;100.00
19447;BME280;9862;49.462;11.054;2023-11-19T03:57:41;97631.44;;;9.46;100.00
19447;BME280;9862;49.462;11.054;2023-11-19T04:00:09;97639.81;;;9.43;100.00
19447;BME280;9862;49.462;11.054;2023-11-19T04:02:39;97650.63;;;9.48;100.00
19447;BME280;9862;49.462;11.054;2023-11-19T04:05:07;97651.00;;;9.58;100.00
19447;BME280;9862;49.462;11.054;2023-11-19T04:07:35;97663.69;;;9.56;100.00
19447;BME280;9862;49.462;11.054;2023-11-19T04:10:02;97654.25;;;9.60;100.00
19447;BME280;9862;49.462;11.054;2023-11-19T04:12:31;97664.03;;;9.66;100.00
19447;BME280;9862;49.462;11.054;2023-11-19T04:14:57;97669.09;;;9.74;100.00
19447;BME280;9862;49.462;11.054;2023-11-19T04:17:24;97680.59;;;9.68;100.00
19447;BME280;9862;49.462;11.054;2023-11-19T04:19:51;97689.59;;;9.61;100.00
19447;BME280;9862;49.462;11.054;2023-11-19T04:22:33;97687.69;;;9.74;100.00
19447;BME280;9862;49.462;11.054;2023-11-19T04:25:00;97688.56;;;9.62;100.00
19447;BME280;9862;49.462;11.054;2023-11-19T04:27:27;97691.81;;;9.64;100.00
19447;BME280;9862;49.462;11.054;2023-11-19T04:29:54;97691.22;;;9.62;100.00
19447;BME280;9862;49.462;11.054;2023-11-19T04:32:21;97685.75;;;9.57;100.00
19447;BME280;9862;49.462;11.054;2023-11-19T04:34:48;97678.75;;;9.62;100.00
19447;BME280;9862;49.462;11.054;2023-11-19T04:37:14;97680.59;;;9.68;100.00
19447;BME280;9862;49.462;11.054;2023-11-19T04:39:44;97677.50;;;9.71;100.00
19447;BME280;9862;49.462;11.054;2023-11-19T04:42:11;97679.91;;;9.80;100.00
19447;BME280;9862;49.462;11.054;2023-11-19T04:44:38;97679.47;;;9.83;100.00
19447;BME280;9862;49.462;11.054;2023-11-19T04:47:06;97683.34;;;9.87;100.00
19447;BME280;9862;49.462;11.054;2023-11-19T04:49:33;97674.56;;;9.86;100.00
19447;BME280;9862;49.462;11.054;2023-11-19T04:52:00;97672.50;;;9.88;100.00
19447;BME280;9862;49.462;11.054;2023-11-19T04:54:28;97666.53;;;9.93;100.00
19447;BME280;9862;49.462;11.054;2023-11-19T04:56:56;97667.75;;;9.97;100.00
19447;BME280;9862;49.462;11.054;2023-11-19T04:59:22;97668.56;;;9.97;100.00
19447;BME280;9862;49.462;11.054;2023-11-19T05:01:49;97672.66;;;10.00;100.00
19447;BME280;9862;49.462;11.054;2023-11-19T05:04:17;97659.34;;;10.00;100.00
19447;BME280;9862;49.462;11.054;2023-11-19T05:06:44;97666.28;;;10.01;100.00
19447;BME280;9862;49.462;11.054;2023-11-19T05:09:11;97667.06;;;10.08;100.00
19447;BME280;9862;49.462;11.054;2023-11-19T05:11:39;97654.38;;;10.10;100.00
19447;BME280;9862;49.462;11.054;2023-11-19T05:14:07;97657.22;;;10.15;100.00
19447;BME280;9862;49.462;11.054;2023-11-19T05:16:34;97661.66;;;10.21;100.00
19447;BME280;9862;49.462;11.054;2023-11-19T05:19:01;97655.34;;;10.22;100.00
19447;BME280;9862;49.462;11.054;2023-11-19T05:21:29;97652.28;;;10.25;100.00
19447;BME280;9862;49.462;11.054;2023-11-19T05:23:56;97647.50;;;10.34;100.00
19447;BME280;9862;49.462;11.054;2023-11-19T05:26:23;97640.34;;;10.35;100.00
19447;BME280;9862;49.462;11.054;2023-11-19T05:28:50;97642.56;;;10.38;100.00
19447;BME280;9862;49.462;11.054;2023-11-19T05:31:19;97629.03;;;10.39;100.00
19447;BME280;9862;49.462;11.054;2023-11-19T05:33:46;97640.34;;;10.35;100.00
19447;BME280;9862;49.462;11.054;2023-11-19T05:36:13;97640.34;;;10.35;100.00
19447;BME280;9862;49.462;11.054;2023-11-19T05:38:40;97635.25;;;10.33;100.00
19447;BME280;9862;49.462;11.054;2023-11-19T05:41:07;97628.66;;;10.36;100.00
19447;BME280;9862;49.462;11.054;2023-11-19T05:43:34;97624.75;;;10.38;100.00
19447;BME280;9862;49.462;11.054;2023-11-19T05:46:01;97630.44;;;10.42;100.00
19447;BME280;9862;49.462;11.054;2023-11-19T05:48:30;97624.94;;;10.43;100.00
19447;BME280;9862;49.462;11.054;2023-11-19T05:50:57;97612.22;;;10.45;100.00
19447;BME280;9862;49.462;11.054;2023-11-19T05:53:24;97615.31;;;10.42;100.00
19447;BME280;9862;49.462;11.054;2023-11-19T05:55:51;97616.13;;;10.43;100.00
19447;BME280;9862;49.462;11.054;2023-11-19T05:58:23;97609.16;;;10.42;100.00
19447;BME280;9862;49.462;11.054;2023-11-19T06:00:52;97605.50;;;10.43;100.00
19447;BME280;9862;49.462;11.054;2023-11-19T06:03:18;97612.00;;;10.47;100.00
19447;BME280;9862;49.462;11.054;2023-11-19T06:05:50;97611.94;;;10.53;100.00
19447;BME280;9862;49.462;11.054;2023-11-19T06:08:17;97615.19;;;10.55;100.00
19447;BME280;9862;49.462;11.054;2023-11-19T06:10:46;97621.31;;;10.56;100.00
19447;BME280;9862;49.462;11.054;2023-11-19T06:13:16;97623.31;;;10.60;100.00
19447;BME280;9862;49.462;11.054;2023-11-19T06:15:43;97609.81;;;10.62;100.00
19447;BME280;9862;49.462;11.054;2023-11-19T06:18:10;97612.63;;;10.67;100.00
19447;BME280;9862;49.462;11.054;2023-11-19T06:20:38;97622.81;;;10.70;100.00
19447;BME280;9862;49.462;11.054;2023-11-19T06:23:07;97612.78;;;10.72;100.00
19447;BME280;9862;49.462;11.054;2023-11-19T06:25:34;97613.75;;;10.78;100.00
19447;BME280;9862;49.462;11.054;2023-11-19T06:28:01;97614.56;;;10.78;100.00
19447;BME280;9862;49.462;11.054;2023-11-19T06:30:28;97614.78;;;10.77;100.00
19447;BME280;9862;49.462;11.054;2023-11-19T06:32:57;97618.25;;;10.77;100.00
19447;BME280;9862;49.462;11.054;2023-11-19T06:35:23;97614.56;;;10.78;100.00
19447;BME280;9862;49.462;11.054;2023-11-19T06:37:51;97617.81;;;10.80;100.00
19447;BME280;9862;49.462;11.054;2023-11-19T06:40:19;97605.13;;;10.82;100.00
19447;BME280;9862;49.462;11.054;2023-11-19T06:42:46;97606.75;;;10.83;100.00
19447;BME280;9862;49.462;11.054;2023-11-19T06:45:13;97605.25;;;10.87;100.00
19447;BME280;9862;49.462;11.054;2023-11-19T06:47:39;97603.56;;;10.93;100.00
19447;BME280;9862;49.462;11.054;2023-11-19T06:50:07;97598.47;;;10.92;100.00
19447;BME280;9862;49.462;11.054;2023-11-19T06:52:35;97601.72;;;10.94;100.00
19447;BME280;9862;49.462;11.054;2023-11-19T06:55:04;97604.75;;;10.97;100.00
19447;BME280;9862;49.462;11.054;2023-11-19T06:57:33;97604.91;;;11.02;100.00
19447;BME280;9862;49.462;11.054;2023-11-19T07:00:00;97592.97;;;11.05;100.00
19447;BME280;9862;49.462;11.054;2023-11-19T07:02:27;97599.47;;;11.09;100.00
19447;BME280;9862;49.462;11.054;2023-11-19T07:04:54;97600.91;;;11.11;100.00
19447;BME280;9862;49.462;11.054;2023-11-19T07:07:23;97607.63;;;11.14;100.00
19447;BME280;9862;49.462;11.054;2023-11-19T07:09:49;97594.09;;;11.15;100.00
19447;BME280;9862;49.462;11.054;2023-11-19T07:12:16;97599.19;;;11.17;100.00
19447;BME280;9862;49.462;11.054;2023-11-19T07:14:46;97597.34;;;11.17;100.00
19447;BME280;9862;49.462;11.054;2023-11-19T07:17:13;97592.00;;;11.17;100.00
19447;BME280;9862;49.462;11.054;2023-11-19T07:19:41;97599.78;;;11.19;100.00
19447;BME280;9862;49.462;11.054;2023-11-19T07:22:10;97597.09;;;11.19;100.00
19447;BME280;9862;49.462;11.054;2023-11-19T07:24:39;97596.28;;;11.18;100.00
19447;BME280;9862;49.462;11.054;2023-11-19T07:27:07;97602.59;;;11.24;100.00
19447;BME280;9862;49.462;11.054;2023-11-19T07:29:34;97603.91;;;11.33;100.00
19447;BME280;9862;49.462;11.054;2023-11-19T07:32:03;97617.97;;;11.40;100.00
19447;BME280;9862;49.462;11.054;2023-11-19T07:34:30;97618.97;;;11.58;100.00
19447;BME280;9862;49.462;11.054;2023-11-19T07:36:57;97608.69;;;11.61;100.00
19447;BME280;9862;49.462;11.054;2023-11-19T07:39:28;97620.16;;;11.62;100.00
19447;BME280;9862;49.462;11.054;2023-11-19T07:41:55;97609.63;;;11.67;100.00
19447;BME280;9862;49.462;11.054;2023-11-19T07:44:24;97604.97;;;11.62;100.00
19447;BME280;9862;49.462;11.054;2023-11-19T07:46:51;97596.69;;;11.70;100.00
19447;BME280;9862;49.462;11.054;2023-11-19T07:49:19;97590.31;;;11.71;100.00
19447;BME280;9862;49.462;11.054;2023-11-19T07:51:47;97587.13;;;11.63;100.00
19447;BME280;9862;49.462;11.054;2023-11-19T07:54:14;97582.63;;;11.63;100.00
19447;BME280;9862;49.462;11.054;2023-11-19T07:56:41;97572.00;;;11.75;100.00
19447;BME280;9862;49.462;11.054;2023-11-19T07:59:09;97562.53;;;11.79;100.00
19447;BME280;9862;49.462;11.054;2023-11-19T08:01:35;97548.69;;;11.70;100.00
19447;BME280;9862;49.462;11.054;2023-11-19T08:04:02;97537.81;;;11.72;100.00
19447;BME280;9862;49.462;11.054;2023-11-19T08:06:32;97527.47;;;11.64;100.00
19447;BME280;9862;49.462;11.054;2023-11-19T08:08:58;97500.78;;;11.52;100.00
19447;BME280;9862;49.462;11.054;2023-11-19T08:11:25;97454.09;;;11.50;100.00
19447;BME280;9862;49.462;11.054;2023-11-19T08:13:52;97428.03;;;11.52;100.00
19447;BME280;9862;49.462;11.054;2023-11-19T08:16:19;97370.31;;;11.57;100.00
19447;BME280;9862;49.462;11.054;2023-11-19T08:18:45;97332.09;;;11.63;100.00
19447;BME280;9862;49.462;11.054;2023-11-19T08:21:12;97288.75;;;11.68;100.00
19447;BME280;9862;49.462;11.054;2023-11-19T08:23:41;97258.19;;;11.59;100.00
19447;BME280;9862;49.462;11.054;2023-11-19T08:26:08;97216.78;;;11.56;100.00
19447;BME280;9862;49.462;11.054;2023-11-19T08:28:35;97177.06;;;11.55;100.00
19447;BME280;9862;49.462;11.054;2023-11-19T08:31:02;97104.56;;;11.53;100.00
19447;BME280;9862;49.462;11.054;2023-11-19T08:33:30;97079.72;;;11.64;100.00
19447;BME280;9862;49.462;11.054;2023-11-19T08:35:57;97070.97;;;11.80;100.00
19447;BME280;9862;49.462;11.054;2023-11-19T08:38:24;97061.56;;;11.89;100.00
19447;BME280;9862;49.462;11.054;2023-11-19T08:40:54;97054.13;;;11.91;100.00
19447;BME280;9862;49.462;11.054;2023-11-19T08:43:25;97048.28;;;11.94;100.00
19447;BME280;9862;49.462;11.054;2023-11-19T08:45:52;97051.44;;;11.91;100.00
19447;BME280;9862;49.462;11.054;2023-11-19T08:48:19;97040.03;;;11.96;100.00
19447;BME280;9862;49.462;11.054;2023-11-19T08:50:47;97031.34;;;12.00;100.00
19447;BME280;9862;49.462;11.054;2023-11-19T08:53:14;97020.72;;;12.06;100.00
19447;BME280;9862;49.462;11.054;2023-11-19T08:55:40;97023.56;;;12.16;100.00
19447;BME280;9862;49.462;11.054;2023-11-19T08:58:08;97010.22;;;12.16;100.00
19447;BME280;9862;49.462;11.054;2023-11-19T09:00:35;97011.13;;;12.21;100.00
19447;BME280;9862;49.462;11.054;2023-11-19T09:03:02;97007.75;;;12.26;100.00
19447;BME280;9862;49.462;11.054;2023-11-19T09:05:29;97010.31;;;12.38;100.00
19447;BME280;9862;49.462;11.054;2023-11-19T09:07:57;97019.66;;;12.40;100.00
19447;BME280;9862;49.462;11.054;2023-11-19T09:10:23;97008.03;;;12.46;100.00
19447;BME280;9862;49.462;11.054;2023-11-19T09:12:51;97020.84;;;12.66;100.00
19447;BME280;9862;49.462;11.054;2023-11-19T09:15:19;97037.97;;;12.70;100.00
19447;BME280;9862;49.462;11.054;2023-11-19T09:17:45;97056.78;;;12.80;100.00
19447;BME280;9862;49.462;11.054;2023-11-19T09:20:12;97067.13;;;12.94;100.00
19447;BME280;9862;49.462;11.054;2023-11-19T09:22:40;97094.78;;;13.04;100.00
19447;BME280;9862;49.462;11.054;2023-11-19T09:25:07;97109.63;;;13.17;100.00
19447;BME280;9862;49.462;11.054;2023-11-19T09:27:35;97119.16;;;13.30;100.00
19447;BME280;9862;49.462;11.054;2023-11-19T09:30:02;97141.56;;;13.24;100.00
19447;BME280;9862;49.462;11.054;2023-11-19T09:32:30;97156.56;;;13.30;100.00
19447;BME280;9862;49.462;11.054;2023-11-19T09:34:57;97197.31;;;13.37;100.00
19447;BME280;9862;49.462;11.054;2023-11-19T09:37:24;97206.94;;;13.38;100.00
19447;BME280;9862;49.462;11.054;2023-11-19T09:39:51;97229.13;;;13.38;100.00
19447;BME280;9862;49.462;11.054;2023-11-19T09:42:19;97256.19;;;13.42;100.00
19447;BME280;9862;49.462;11.054;2023-11-19T09:44:47;97274.66;;;13.43;100.00
19447;BME280;9862;49.462;11.054;2023-11-19T09:47:17;97291.50;;;13.44;100.00
19447;BME280;9862;49.462;11.054;2023-11-19T09:49:48;97319.84;;;13.45;100.00
19447;BME280;9862;49.462;11.054;2023-11-19T09:52:15;97321.78;;;13.33;100.00
19447;BME280;9862;49.462;11.054;2023-11-19T09:54:42;97324.53;;;13.38;100.00
19447;BME280;9862;49.462;11.054;2023-11-19T09:57:09;97333.75;;;13.47;100.00
19447;BME280;9862;49.462;11.054;2023-11-19T09:59:38;97330.78;;;13.43;100.00
19447;BME280;9862;49.462;11.054;2023-11-19T10:02:07;97326.16;;;13.39;100.00
19447;BME280;9862;49.462;11.054;2023-11-19T10:04:34;97331.66;;;13.49;100.00
19447;BME280;9862;49.462;11.054;2023-11-19T10:07:04;97340.06;;;13.58;100.00
19447;BME280;9862;49.462;11.054;2023-11-19T10:09:31;97339.41;;;13.67;100.00
19447;BME280;9862;49.462;11.054;2023-11-19T10:11:57;97334.56;;;13.64;100.00
19447;BME280;9862;49.462;11.054;2023-11-19T10:14:25;97327.91;;;13.67;100.00
19447;BME280;9862;49.462;11.054;2023-11-19T10:16:52;97335.38;;;13.65;100.00
19447;BME280;9862;49.462;11.054;2023-11-19T10:19:19;97340.72;;;13.65;100.00
19447;BME280;9862;49.462;11.054;2023-11-19T10:21:46;97338.84;;;13.65;100.00
19447;BME280;9862;49.462;11.054;2023-11-19T10:24:15;97335.22;;;13.71;100.00
19447;BME280;9862;49.462;11.054;2023-11-19T10:26:43;97333.75;;;13.64;100.00
19447;BME280;9862;49.462;11.054;2023-11-19T10:29:12;97335.63;;;13.63;100.00
19447;BME280;9862;49.462;11.054;2023-11-19T10:31:40;97324.91;;;13.63;100.00
19447;BME280;9862;49.462;11.054;2023-11-19T10:34:24;97324.66;;;13.65;100.00
19447;BME280;9862;49.462;11.054;2023-11-19T10:36:53;97321.75;;;13.66;100.00
19447;BME280;9862;49.462;11.054;2023-11-19T10:39:22;97316.56;;;13.60;100.00
19447;BME280;9862;49.462;11.054;2023-11-19T10:41:50;97305.50;;;13.51;100.00
19447;BME280;9862;49.462;11.054;2023-11-19T10:44:31;97294.56;;;13.36;100.00
19447;BME280;9862;49.462;11.054;2023-11-19T10:47:01;97272.94;;;13.37;100.00
19447;BME280;9862;49.462;11.054;2023-11-19T10:49:28;97250.75;;;13.37;100.00
19447;BME280;9862;49.462;11.054;2023-11-19T10:51:55;97232.59;;;13.39;100.00
19447;BME280;9862;49.462;11.054;2023-11-19T10:54:25;97216.16;;;13.47;100.00
19447;BME280;9862;49.462;11.054;2023-11-19T10:56:55;97195.75;;;13.41;100.00
19447;BME280;9862;49.462;11.054;2023-11-19T10:59:27;97189.78;;;13.56;100.00
19447;BME280;9862;49.462;11.054;2023-11-19T11:01:56;97199.13;;;13.75;100.00
19447;BME280;9862;49.462;11.054;2023-11-19T11:04:24;97194.69;;;13.86;100.00
19447;BME280;9862;49.462;11.054;2023-11-19T11:06:54;97208.06;;;13.86;100.00
19447;BME280;9862;49.462;11.054;2023-11-19T11:09:21;97231.66;;;13.89;100.00
19447;BME280;9862;49.462;11.054;2023-11-19T11:11:51;97240.25;;;13.91;100.00
19447;BME280;9862;49.462;11.054;2023-11-19T11:14:20;97276.00;;;13.85;100.00
19447;BME280;9862;49.462;11.054;2023-11-19T11:16:48;97293.16;;;13.89;100.00
19447;BME280;9862;49.462;11.054;2023-11-19T11:19:16;97304.22;;;13.75;100.00
19447;BME280;9862;49.462;11.054;2023-11-19T11:21:45;97330.47;;;13.79;100.00
19447;BME280;9862;49.462;11.054;2023-11-19T11:24:29;97349.28;;;13.84;100.00
19447;BME280;9862;49.462;11.054;2023-11-19T11:27:23;97358.56;;;13.98;100.00
19447;BME280;9862;49.462;11.054;2023-11-19T11:30:01;97374.06;;;13.96;100.00
19447;BME280;9862;49.462;11.054;2023-11-19T11:32:36;97362.97;;;13.87;100.00
19447;BME280;9862;49.462;11.054;2023-11-19T11:35:23;97383.94;;;13.95;100.00
19447;BME280;9862;49.462;11.054;2023-11-19T11:37:57;97388.50;;;13.95;100.00
19447;BME280;9862;49.462;11.054;2023-11-19T11:40:27;97387.00;;;14.04;100.00
19447;BME280;9862;49.462;11.054;2023-11-19T11:42:55;97389.28;;;14.12;100.00
19447;BME280;9862;49.462;11.054;2023-11-19T11:45:35;97389.22;;;14.29;100.00
19447;BME280;9862;49.462;11.054;2023-11-19T11:48:09;97389.09;;;14.41;100.00
19447;BME280;9862;49.462;11.054;2023-11-19T11:50:48;97392.34;;;14.43;100.00
19447;BME280;9862;49.462;11.054;2023-11-19T11:53:17;97419.22;;;14.48;100.00
19447;BME280;9862;49.462;11.054;2023-11-19T11:55:54;97407.19;;;14.50;100.00
19447;BME280;9862;49.462;11.054;2023-11-19T11:58:29;97412.69;;;14.44;100.00
19447;BME280;9862;49.462;11.054;2023-11-19T12:00:58;97422.13;;;14.46;100.00
19447;BME280;9862;49.462;11.054;2023-11-19T12:03:28;97417.50;;;14.42;100.00
19447;BME280;9862;49.462;11.054;2023-11-19T12:05:57;97420.19;;;14.42;100.00
19447;BME280;9862;49.462;11.054;2023-11-19T12:08:27;97414.91;;;14.47;100.00
19447;BME280;9862;49.462;11.054;2023-11-19T12:10:57;97427.00;;;14.32;100.00
19447;BME280;9862;49.462;11.054;2023-11-19T12:13:53;97411.75;;;14.33;100.00
19447;BME280;9862;49.462;11.054;2023-11-19T12:16:21;97423.53;;;14.32;100.00
19447;BME280;9862;49.462;11.054;2023-11-19T12:18:49;97428.06;;;14.31;100.00
19447;BME280;9862;49.462;11.054;2023-11-19T12:21:29;97430.09;;;14.24;100.00
19447;BME280;9862;49.462;11.054;2023-11-19T12:23:58;97427.56;;;14.35;100.00
19447;BME280;9862;49.462;11.054;2023-11-19T12:26:38;97426.03;;;14.39;100.00
19447;BME280;9862;49.462;11.054;2023-11-19T12:29:07;97418.38;;;14.47;100.00
19447;BME280;9862;49.462;11.054;2023-11-19T12:31:34;97412.44;;;14.62;100.00
19447;BME280;9862;49.462;11.054;2023-11-19T12:34:06;97421.56;;;14.66;100.00
19447;BME280;9862;49.462;11.054;2023-11-19T12:36:34;97428.06;;;14.70;100.00
19447;BME280;9862;49.462;11.054;2023-11-19T12:39:02;97427.63;;;14.78;100.00
19447;BME280;9862;49.462;11.054;2023-11-19T12:41:30;97442.50;;;14.91;100.00
19447;BME280;9862;49.462;11.054;2023-11-19T12:44:10;97433.66;;;14.91;100.00
19447;BME280;9862;49.462;11.054;2023-11-19T12:46:38;97441.25;;;14.99;100.00
19447;BME280;9862;49.462;11.054;2023-11-19T12:49:05;97453.72;;;14.88;100.00
19447;BME280;9862;49.462;11.054;2023-11-19T12:51:32;97467.31;;;14.81;100.00
19447;BME280;9862;49.462;11.054;2023-11-19T12:53:59;97466.19;;;14.77;100.00
19447;BME280;9862;49.462;11.054;2023-11-19T12:56:26;97484.13;;;14.77;100.00
19447;BME280;9862;49.462;11.054;2023-11-19T12:58:53;97485.38;;;14.69;100.00
19447;BME280;9862;49.462;11.054;2023-11-19T13:01:22;97476.78;;;14.67;100.00